sensor_id;sensor_type;location;lat;lon;timestamp;pressure;altitude;pressure_sealevel;temperature;humidity
74936;BME280;63501;55.570;37.488;2022-12-07T00:01:17;100324.03;;;-10.46;60.06
74936;BME280;63501;55.570;37.488;2022-12-07T00:03:44;100319.38;;;-10.50;59.86
74936;BME280;63501;55.570;37.488;2022-12-07T00:06:12;100325.44;;;-10.55;60.52
74936;BME280;63501;55.570;37.488;2022-12-07T00:08:38;100322.53;;;-10.53;60.75
74936;BME280;63501;55.570;37.488;2022-12-07T00:11:07;100333.91;;;-10.58;60.22
74936;BME280;63501;55.570;37.488;2022-12-07T00:13:34;100322.75;;;-10.67;60.89
74936;BME280;63501;55.570;37.488;2022-12-07T00:16:01;100323.34;;;-10.64;61.50
74936;BME280;63501;55.570;37.488;2022-12-07T00:18:27;100329.03;;;-10.61;61.01
74936;BME280;63501;55.570;37.488;2022-12-07T00:20:53;100317.88;;;-10.70;60.67
74936;BME280;63501;55.570;37.488;2022-12-07T00:23:23;100318.31;;;-10.73;61.67
74936;BME280;63501;55.570;37.488;2022-12-07T00:25:49;100326.00;;;-10.76;61.98
74936;BME280;63501;55.570;37.488;2022-12-07T00:28:14;100324.38;;;-10.77;61.17
74936;BME280;63501;55.570;37.488;2022-12-07T00:30:40;100319.47;;;-10.80;61.01
74936;BME280;63501;55.570;37.488;2022-12-07T00:33:06;100311.91;;;-10.83;61.73
74936;BME280;63501;55.570;37.488;2022-12-07T00:35:31;100322.50;;;-10.88;61.01
74936;BME280;63501;55.570;37.488;2022-12-07T00:37:57;100319.94;;;-10.83;61.04
74936;BME280;63501;55.570;37.488;2022-12-07T00:40:23;100322.03;;;-10.85;62.54
74936;BME280;63501;55.570;37.488;2022-12-07T00:42:48;100324.56;;;-10.90;61.30
74936;BME280;63501;55.570;37.488;2022-12-07T00:45:14;100331.41;;;-10.95;62.24
74936;BME280;63501;55.570;37.488;2022-12-07T00:47:39;100329.47;;;-10.87;61.50
74936;BME280;63501;55.570;37.488;2022-12-07T00:50:05;100320.03;;;-10.90;61.29
74936;BME280;63501;55.570;37.488;2022-12-07T00:52:31;100327.72;;;-10.94;61.75
74936;BME280;63501;55.570;37.488;2022-12-07T00:54:56;100325.03;;;-10.94;61.31
74936;BME280;63501;55.570;37.488;2022-12-07T00:57:22;100318.03;;;-10.95;61.89
74936;BME280;63501;55.570;37.488;2022-12-07T00:59:48;100322.25;;;-10.99;62.33
74936;BME280;63501;55.570;37.488;2022-12-07T01:02:13;100324.31;;;-11.01;62.17
74936;BME280;63501;55.570;37.488;2022-12-07T01:04:39;100320.63;;;-11.00;62.13
74936;BME280;63501;55.570;37.488;2022-12-07T01:07:04;100330.69;;;-11.02;62.62
74936;BME280;63501;55.570;37.488;2022-12-07T01:09:30;100319.31;;;-11.09;62.28
74936;BME280;63501;55.570;37.488;2022-12-07T01:11:56;100323.03;;;-11.10;62.83
74936;BME280;63501;55.570;37.488;2022-12-07T01:14:21;100331.03;;;-11.10;62.23
74936;BME280;63501;55.570;37.488;2022-12-07T01:16:47;100324.88;;;-11.10;62.74
74936;BME280;63501;55.570;37.488;2022-12-07T01:19:12;100323.69;;;-11.14;62.03
74936;BME280;63501;55.570;37.488;2022-12-07T01:21:38;100318.22;;;-11.20;62.18
74936;BME280;63501;55.570;37.488;2022-12-07T01:24:05;100325.44;;;-11.08;62.05
74936;BME280;63501;55.570;37.488;2022-12-07T01:26:31;100322.88;;;-11.15;62.15
74936;BME280;63501;55.570;37.488;2022-12-07T01:28:57;100314.41;;;-11.12;62.26
74936;BME280;63501;55.570;37.488;2022-12-07T01:31:25;100319.97;;;-11.13;63.14
74936;BME280;63501;55.570;37.488;2022-12-07T01:33:54;100317.84;;;-11.23;62.97
74936;BME280;63501;55.570;37.488;2022-12-07T01:36:23;100315.88;;;-11.28;62.67
74936;BME280;63501;55.570;37.488;2022-12-07T01:38:51;100307.13;;;-11.35;62.96
74936;BME280;63501;55.570;37.488;2022-12-07T01:41:18;100312.47;;;-11.35;62.81
74936;BME280;63501;55.570;37.488;2022-12-07T01:44:17;100308.56;;;-11.32;62.74
74936;BME280;63501;55.570;37.488;2022-12-07T01:46:45;100306.31;;;-11.35;63.19
74936;BME280;63501;55.570;37.488;2022-12-07T01:50:04;100295.88;;;-11.37;62.83
74936;BME280;63501;55.570;37.488;2022-12-07T01:52:17;100294.47;;;-11.39;63.63
74936;BME280;63501;55.570;37.488;2022-12-07T01:54:45;100294.47;;;-11.39;63.24
74936;BME280;63501;55.570;37.488;2022-12-07T01:57:14;100294.13;;;-11.43;63.03
74936;BME280;63501;55.570;37.488;2022-12-07T01:59:45;100292.03;;;-11.41;63.15
74936;BME280;63501;55.570;37.488;2022-12-07T02:02:18;100298.66;;;-11.43;63.57
74936;BME280;63501;55.570;37.488;2022-12-07T02:04:45;100285.50;;;-11.45;62.93
74936;BME280;63501;55.570;37.488;2022-12-07T02:07:11;100292.69;;;-11.46;64.15
74936;BME280;63501;55.570;37.488;2022-12-07T02:09:38;100295.59;;;-11.47;63.56
74936;BME280;63501;55.570;37.488;2022-12-07T02:12:04;100285.16;;;-11.49;63.63
74936;BME280;63501;55.570;37.488;2022-12-07T02:14:30;100285.16;;;-11.49;63.77
74936;BME280;63501;55.570;37.488;2022-12-07T02:17:17;100280.16;;;-11.45;63.49
74936;BME280;63501;55.570;37.488;2022-12-07T02:28:25;100275.53;;;-11.50;64.08
74936;BME280;63501;55.570;37.488;2022-12-07T02:30:58;100279.69;;;-11.54;64.02
74936;BME280;63501;55.570;37.488;2022-12-07T02:33:36;100270.25;;;-11.56;64.10
74936;BME280;63501;55.570;37.488;2022-12-07T02:36:02;100272.59;;;-11.60;64.32
74936;BME280;63501;55.570;37.488;2022-12-07T02:38:52;100282.66;;;-11.62;64.61
74936;BME280;63501;55.570;37.488;2022-12-07T02:41:26;100278.16;;;-11.61;64.35
74936;BME280;63501;55.570;37.488;2022-12-07T02:44:07;100270.97;;;-11.61;63.81
74936;BME280;63501;55.570;37.488;2022-12-07T02:46:41;100278.38;;;-11.63;64.19
74936;BME280;63501;55.570;37.488;2022-12-07T02:49:07;100280.44;;;-11.65;64.50
74936;BME280;63501;55.570;37.488;2022-12-07T02:51:39;100271.88;;;-11.67;64.49
74936;BME280;63501;55.570;37.488;2022-12-07T02:54:12;100274.53;;;-11.67;64.64
74936;BME280;63501;55.570;37.488;2022-12-07T02:59:29;100280.88;;;-11.68;64.74
74936;BME280;63501;55.570;37.488;2022-12-07T03:18:05;100276.28;;;-11.91;65.43
74936;BME280;63501;55.570;37.488;2022-12-07T03:20:35;100272.81;;;-11.91;64.73
74936;BME280;63501;55.570;37.488;2022-12-07T03:23:05;100278.75;;;-11.89;65.39
74936;BME280;63501;55.570;37.488;2022-12-07T03:25:39;100272.81;;;-11.91;65.29
74936;BME280;63501;55.570;37.488;2022-12-07T03:28:07;100262.28;;;-11.86;66.24
74936;BME280;63501;55.570;37.488;2022-12-07T03:30:42;100266.81;;;-11.87;65.72
74936;BME280;63501;55.570;37.488;2022-12-07T03:33:14;100252.91;;;-11.89;65.11
74936;BME280;63501;55.570;37.488;2022-12-07T03:35:49;100274.56;;;-11.85;65.64
74936;BME280;63501;55.570;37.488;2022-12-07T03:38:21;100258.38;;;-11.84;66.08
74936;BME280;63501;55.570;37.488;2022-12-07T03:43:29;100258.00;;;-11.87;66.27
74936;BME280;63501;55.570;37.488;2022-12-07T03:46:03;100244.09;;;-11.89;66.41
74936;BME280;63501;55.570;37.488;2022-12-07T03:48:50;100261.09;;;-11.90;65.91
74936;BME280;63501;55.570;37.488;2022-12-07T03:51:22;100270.75;;;-11.89;66.26
74936;BME280;63501;55.570;37.488;2022-12-07T03:54:15;100258.00;;;-11.87;66.92
74936;BME280;63501;55.570;37.488;2022-12-07T03:56:44;100259.38;;;-11.85;66.85
74936;BME280;63501;55.570;37.488;2022-12-07T03:59:12;100252.19;;;-11.84;65.95
74936;BME280;63501;55.570;37.488;2022-12-07T04:01:38;100259.84;;;-11.88;66.69
74936;BME280;63501;55.570;37.488;2022-12-07T04:04:06;100255.75;;;-11.90;66.22
74936;BME280;63501;55.570;37.488;2022-12-07T04:06:31;100256.81;;;-11.91;66.67
74936;BME280;63501;55.570;37.488;2022-12-07T04:08:57;100252.53;;;-11.92;66.71
74936;BME280;63501;55.570;37.488;2022-12-07T04:11:22;100249.84;;;-11.92;66.80
74936;BME280;63501;55.570;37.488;2022-12-07T04:13:48;100263.03;;;-11.97;66.71
74936;BME280;63501;55.570;37.488;2022-12-07T04:16:32;100250.91;;;-11.93;66.74
74936;BME280;63501;55.570;37.488;2022-12-07T04:18:58;100254.94;;;-11.91;67.81
74936;BME280;63501;55.570;37.488;2022-12-07T04:21:24;100249.03;;;-11.93;66.91
74936;BME280;63501;55.570;37.488;2022-12-07T04:23:49;100247.75;;;-11.90;67.21
74936;BME280;63501;55.570;37.488;2022-12-07T04:26:15;100245.91;;;-11.90;66.90
74936;BME280;63501;55.570;37.488;2022-12-07T04:28:40;100249.63;;;-11.91;67.74
74936;BME280;63501;55.570;37.488;2022-12-07T04:31:06;100247.41;;;-11.94;67.76
74936;BME280;63501;55.570;37.488;2022-12-07T04:33:31;100239.03;;;-11.97;67.78
74936;BME280;63501;55.570;37.488;2022-12-07T04:35:57;100247.63;;;-11.95;67.48
74936;BME280;63501;55.570;37.488;2022-12-07T04:38:23;100245.78;;;-11.95;67.36
74936;BME280;63501;55.570;37.488;2022-12-07T04:40:48;100250.09;;;-11.94;68.42
74936;BME280;63501;55.570;37.488;2022-12-07T04:43:14;100244.53;;;-11.92;67.72
74936;BME280;63501;55.570;37.488;2022-12-07T04:45:39;100240.00;;;-11.92;67.91
74936;BME280;63501;55.570;37.488;2022-12-07T04:48:05;100238.59;;;-11.94;68.47
74936;BME280;63501;55.570;37.488;2022-12-07T04:50:31;100244.75;;;-11.94;67.72
74936;BME280;63501;55.570;37.488;2022-12-07T04:52:57;100232.38;;;-11.88;68.31
74936;BME280;63501;55.570;37.488;2022-12-07T04:55:22;100244.09;;;-11.89;69.16
74936;BME280;63501;55.570;37.488;2022-12-07T04:57:48;100236.91;;;-11.89;68.59
74936;BME280;63501;55.570;37.488;2022-12-07T05:00:14;100235.25;;;-11.90;68.54
74936;BME280;63501;55.570;37.488;2022-12-07T05:02:39;100229.09;;;-11.90;68.66
74936;BME280;63501;55.570;37.488;2022-12-07T05:05:05;100237.34;;;-11.92;69.00
74936;BME280;63501;55.570;37.488;2022-12-07T05:07:31;100238.16;;;-11.91;69.20
74936;BME280;63501;55.570;37.488;2022-12-07T05:09:56;100239.75;;;-11.90;69.26
74936;BME280;63501;55.570;37.488;2022-12-07T05:12:22;100244.66;;;-11.87;69.02
74936;BME280;63501;55.570;37.488;2022-12-07T05:14:47;100234.81;;;-11.87;69.15
74936;BME280;63501;55.570;37.488;2022-12-07T05:17:13;100235.63;;;-11.86;69.44
74936;BME280;63501;55.570;37.488;2022-12-07T05:19:39;100250.56;;;-11.85;69.88
74936;BME280;63501;55.570;37.488;2022-12-07T05:22:05;100245.47;;;-11.87;69.59
74936;BME280;63501;55.570;37.488;2022-12-07T05:24:30;100232.22;;;-11.93;70.15
74936;BME280;63501;55.570;37.488;2022-12-07T05:26:56;100231.91;;;-11.85;69.65
74936;BME280;63501;55.570;37.488;2022-12-07T05:29:21;100236.19;;;-11.84;70.55
74936;BME280;63501;55.570;37.488;2022-12-07T05:31:47;100242.38;;;-11.84;69.99
74936;BME280;63501;55.570;37.488;2022-12-07T05:34:12;100233.75;;;-11.86;70.43
74936;BME280;63501;55.570;37.488;2022-12-07T05:36:38;100236.81;;;-11.82;70.99
74936;BME280;63501;55.570;37.488;2022-12-07T05:39:05;100229.03;;;-11.84;70.22
74936;BME280;63501;55.570;37.488;2022-12-07T05:41:32;100225.75;;;-11.86;70.41
74936;BME280;63501;55.570;37.488;2022-12-07T05:44:16;100227.03;;;-11.88;71.30
74936;BME280;63501;55.570;37.488;2022-12-07T05:46:42;100230.53;;;-11.88;70.94
74936;BME280;63501;55.570;37.488;2022-12-07T05:51:35;100242.13;;;-11.82;71.24
74936;BME280;63501;55.570;37.488;2022-12-07T05:54:01;100235.19;;;-11.83;71.38
74936;BME280;63501;55.570;37.488;2022-12-07T05:56:27;100229.84;;;-11.83;71.66
74936;BME280;63501;55.570;37.488;2022-12-07T05:58:53;100228.31;;;-11.79;71.42
74936;BME280;63501;55.570;37.488;2022-12-07T06:01:37;100228.31;;;-11.79;71.12
74936;BME280;63501;55.570;37.488;2022-12-07T06:04:03;100225.63;;;-11.79;71.83
74936;BME280;63501;55.570;37.488;2022-12-07T06:06:29;100228.44;;;-11.74;71.92
74936;BME280;63501;55.570;37.488;2022-12-07T06:08:54;100229.63;;;-11.70;71.74
74936;BME280;63501;55.570;37.488;2022-12-07T06:11:20;100225.91;;;-11.69;71.56
74936;BME280;63501;55.570;37.488;2022-12-07T06:14:04;100231.00;;;-11.67;72.24
74936;BME280;63501;55.570;37.488;2022-12-07T06:16:30;100228.97;;;-11.65;71.80
74936;BME280;63501;55.570;37.488;2022-12-07T06:18:56;100225.47;;;-11.66;72.30
74936;BME280;63501;55.570;37.488;2022-12-07T06:21:21;100234.06;;;-11.64;71.63
74936;BME280;63501;55.570;37.488;2022-12-07T06:23:47;100239.84;;;-11.67;72.41
74936;BME280;63501;55.570;37.488;2022-12-07T06:26:13;100245.19;;;-11.67;72.40
74936;BME280;63501;55.570;37.488;2022-12-07T06:28:39;100229.75;;;-11.65;73.09
74936;BME280;63501;55.570;37.488;2022-12-07T06:31:05;100228.34;;;-11.67;72.47
74936;BME280;63501;55.570;37.488;2022-12-07T06:33:31;100225.91;;;-11.69;72.50
74936;BME280;63501;55.570;37.488;2022-12-07T06:35:57;100227.91;;;-11.64;72.35
74936;BME280;63501;55.570;37.488;2022-12-07T06:38:22;100229.09;;;-11.60;72.95
74936;BME280;63501;55.570;37.488;2022-12-07T06:40:48;100221.09;;;-11.60;72.08
74936;BME280;63501;55.570;37.488;2022-12-07T06:43:13;100227.72;;;-11.51;72.64
74936;BME280;63501;55.570;37.488;2022-12-07T06:45:40;100230.63;;;-11.53;72.01
74936;BME280;63501;55.570;37.488;2022-12-07T06:48:06;100229.13;;;-11.49;72.75
74936;BME280;63501;55.570;37.488;2022-12-07T06:50:31;100210.78;;;-11.45;72.87
74936;BME280;63501;55.570;37.488;2022-12-07T06:52:57;100221.59;;;-11.40;72.36
74936;BME280;63501;55.570;37.488;2022-12-07T06:55:22;100227.06;;;-11.35;72.49
74936;BME280;63501;55.570;37.488;2022-12-07T06:57:48;100227.66;;;-11.33;73.13
74936;BME280;63501;55.570;37.488;2022-12-07T07:00:14;100226.16;;;-11.29;72.41
74936;BME280;63501;55.570;37.488;2022-12-07T07:02:40;100224.09;;;-11.27;72.46
74936;BME280;63501;55.570;37.488;2022-12-07T07:05:06;100219.06;;;-11.23;73.17
74936;BME280;63501;55.570;37.488;2022-12-07T07:07:31;100226.41;;;-11.18;72.24
74936;BME280;63501;55.570;37.488;2022-12-07T07:09:57;100230.50;;;-11.16;72.07
74936;BME280;63501;55.570;37.488;2022-12-07T07:12:22;100223.06;;;-11.14;72.26
74936;BME280;63501;55.570;37.488;2022-12-07T07:14:48;100228.38;;;-11.14;72.82
74936;BME280;63501;55.570;37.488;2022-12-07T07:17:13;100232.44;;;-11.11;72.03
74936;BME280;63501;55.570;37.488;2022-12-07T07:19:39;100228.50;;;-11.09;72.02
74936;BME280;63501;55.570;37.488;2022-12-07T07:22:05;100223.88;;;-11.02;71.98
74936;BME280;63501;55.570;37.488;2022-12-07T07:24:30;100227.97;;;-10.99;71.37
74936;BME280;63501;55.570;37.488;2022-12-07T07:26:56;100214.59;;;-10.99;72.13
74936;BME280;63501;55.570;37.488;2022-12-07T07:29:21;100220.63;;;-10.92;72.03
74936;BME280;63501;55.570;37.488;2022-12-07T07:31:47;100212.25;;;-10.84;71.79
74936;BME280;63501;55.570;37.488;2022-12-07T07:34:13;100212.88;;;-10.82;71.06
74936;BME280;63501;55.570;37.488;2022-12-07T07:36:38;100211.13;;;-10.76;71.20
74936;BME280;63501;55.570;37.488;2022-12-07T07:39:04;100222.75;;;-10.71;72.26
74936;BME280;63501;55.570;37.488;2022-12-07T07:41:30;100212.63;;;-10.69;71.67
74936;BME280;63501;55.570;37.488;2022-12-07T07:43:56;100199.63;;;-10.65;70.85
74936;BME280;63501;55.570;37.488;2022-12-07T07:46:21;100211.69;;;-10.62;71.64
74936;BME280;63501;55.570;37.488;2022-12-07T07:48:47;100204.25;;;-10.60;71.56
74936;BME280;63501;55.570;37.488;2022-12-07T07:51:12;100202.16;;;-10.58;71.78
74936;BME280;63501;55.570;37.488;2022-12-07T07:53:38;100202.97;;;-10.58;70.35
74936;BME280;63501;55.570;37.488;2022-12-07T07:56:04;100212.59;;;-10.57;71.13
74936;BME280;63501;55.570;37.488;2022-12-07T07:58:29;100202.72;;;-10.56;70.49
74936;BME280;63501;55.570;37.488;2022-12-07T08:00:55;100198.66;;;-10.47;70.25
74936;BME280;63501;55.570;37.488;2022-12-07T08:03:20;100197.84;;;-10.36;69.82
74936;BME280;63501;55.570;37.488;2022-12-07T08:05:46;100198.50;;;-10.29;71.01
74936;BME280;63501;55.570;37.488;2022-12-07T08:08:11;100190.91;;;-10.20;70.86
74936;BME280;63501;55.570;37.488;2022-12-07T08:10:37;100190.63;;;-10.07;70.14
74936;BME280;63501;55.570;37.488;2022-12-07T08:13:03;100178.47;;;-9.86;69.64
74936;BME280;63501;55.570;37.488;2022-12-07T08:15:41;100180.53;;;-9.60;68.51
74936;BME280;63501;55.570;37.488;2022-12-07T08:18:07;100178.63;;;-9.47;68.94
74936;BME280;63501;55.570;37.488;2022-12-07T08:20:34;100177.88;;;-9.43;67.83
74936;BME280;63501;55.570;37.488;2022-12-07T08:23:00;100183.63;;;-9.51;68.32
74936;BME280;63501;55.570;37.488;2022-12-07T08:25:27;100178.28;;;-9.51;67.69
74936;BME280;63501;55.570;37.488;2022-12-07T08:27:53;100171.97;;;-9.45;67.25
74936;BME280;63501;55.570;37.488;2022-12-07T08:30:19;100172.84;;;-9.39;67.56
74936;BME280;63501;55.570;37.488;2022-12-07T08:32:46;100173.19;;;-9.36;68.09
74936;BME280;63501;55.570;37.488;2022-12-07T08:35:11;100164.03;;;-9.23;66.94
74936;BME280;63501;55.570;37.488;2022-12-07T08:37:38;100160.28;;;-9.05;67.28
74936;BME280;63501;55.570;37.488;2022-12-07T08:40:05;100172.13;;;-9.01;65.38
74936;BME280;63501;55.570;37.488;2022-12-07T08:42:31;100158.75;;;-9.01;66.58
74936;BME280;63501;55.570;37.488;2022-12-07T08:45:13;100157.03;;;-8.90;66.44
74936;BME280;63501;55.570;37.488;2022-12-07T08:48:05;100161.91;;;-8.65;65.32
74936;BME280;63501;55.570;37.488;2022-12-07T08:50:32;100152.66;;;-8.36;65.58
74936;BME280;63501;55.570;37.488;2022-12-07T08:52:59;100145.06;;;-8.17;64.56
74936;BME280;63501;55.570;37.488;2022-12-07T08:55:26;100143.41;;;-8.23;62.85
74936;BME280;63501;55.570;37.488;2022-12-07T08:57:53;100148.34;;;-8.37;62.93
74936;BME280;63501;55.570;37.488;2022-12-07T09:00:19;100138.41;;;-8.36;63.43
74936;BME280;63501;55.570;37.488;2022-12-07T09:02:45;100145.06;;;-8.17;62.57
74936;BME280;63501;55.570;37.488;2022-12-07T09:05:12;100136.81;;;-8.10;62.19
74936;BME280;63501;55.570;37.488;2022-12-07T09:07:41;100131.41;;;-8.15;61.38
74936;BME280;63501;55.570;37.488;2022-12-07T09:10:08;100135.63;;;-8.19;63.64
74936;BME280;63501;55.570;37.488;2022-12-07T09:12:33;100126.13;;;-7.83;63.01
74936;BME280;63501;55.570;37.488;2022-12-07T09:14:59;100113.25;;;-6.70;63.39
74936;BME280;63501;55.570;37.488;2022-12-07T09:17:26;100103.63;;;-5.32;62.45
74936;BME280;63501;55.570;37.488;2022-12-07T09:19:51;100093.81;;;-4.12;58.45
74936;BME280;63501;55.570;37.488;2022-12-07T09:22:17;100082.66;;;-3.56;58.57
74936;BME280;63501;55.570;37.488;2022-12-07T09:24:43;100056.88;;;-2.85;55.04
74936;BME280;63501;55.570;37.488;2022-12-07T09:27:11;100061.31;;;-2.27;55.51
74936;BME280;63501;55.570;37.488;2022-12-07T09:29:37;100066.63;;;-1.79;50.96
74936;BME280;63501;55.570;37.488;2022-12-07T09:32:02;100057.03;;;-1.58;52.48
74936;BME280;63501;55.570;37.488;2022-12-07T09:34:31;100047.31;;;-1.26;51.94
74936;BME280;63501;55.570;37.488;2022-12-07T09:36:57;100036.00;;;-1.01;50.20
74936;BME280;63501;55.570;37.488;2022-12-07T09:39:23;100018.47;;;-0.40;45.87
74936;BME280;63501;55.570;37.488;2022-12-07T09:41:48;100037.06;;;-0.19;48.03
74936;BME280;63501;55.570;37.488;2022-12-07T09:44:20;100040.22;;;0.33;48.41
74936;BME280;63501;55.570;37.488;2022-12-07T09:46:47;100016.88;;;0.54;47.10
74936;BME280;63501;55.570;37.488;2022-12-07T09:49:19;100028.66;;;0.27;45.63
74936;BME280;63501;55.570;37.488;2022-12-07T09:51:46;100020.50;;;0.27;44.12
74936;BME280;63501;55.570;37.488;2022-12-07T09:54:16;100014.47;;;0.52;45.95
74936;BME280;63501;55.570;37.488;2022-12-07T09:56:43;100020.53;;;0.81;45.05
74936;BME280;63501;55.570;37.488;2022-12-07T09:59:15;100002.22;;;1.43;45.01
74936;BME280;63501;55.570;37.488;2022-12-07T10:01:43;100004.06;;;1.91;44.18
74936;BME280;63501;55.570;37.488;2022-12-07T10:04:22;100002.91;;;1.66;44.03
74936;BME280;63501;55.570;37.488;2022-12-07T10:06:48;99987.38;;;1.93;42.83
74936;BME280;63501;55.570;37.488;2022-12-07T10:09:18;100003.69;;;1.58;42.59
74936;BME280;63501;55.570;37.488;2022-12-07T10:12:07;99997.88;;;1.51;42.67
74936;BME280;63501;55.570;37.488;2022-12-07T10:14:39;99984.81;;;2.05;42.32
74936;BME280;63501;55.570;37.488;2022-12-07T10:17:33;99986.88;;;2.17;41.52
74936;BME280;63501;55.570;37.488;2022-12-07T10:22:58;99991.06;;;2.14;40.96
74936;BME280;63501;55.570;37.488;2022-12-07T10:25:28;99988.81;;;1.81;40.61
74936;BME280;63501;55.570;37.488;2022-12-07T10:28:19;99988.63;;;1.12;41.35
74936;BME280;63501;55.570;37.488;2022-12-07T10:30:56;99988.28;;;1.62;40.22
74936;BME280;63501;55.570;37.488;2022-12-07T10:33:28;99985.44;;;1.76;40.00
74936;BME280;63501;55.570;37.488;2022-12-07T10:35:54;99982.38;;;1.77;40.35
74936;BME280;63501;55.570;37.488;2022-12-07T10:38:20;99987.00;;;1.51;39.90
74936;BME280;63501;55.570;37.488;2022-12-07T10:40:46;99996.56;;;1.31;39.68
74936;BME280;63501;55.570;37.488;2022-12-07T10:54:22;99991.38;;;0.50;41.88
74936;BME280;63501;55.570;37.488;2022-12-07T11:05:22;99966.66;;;1.66;38.91
74936;BME280;63501;55.570;37.488;2022-12-07T11:14:00;99961.63;;;1.33;39.49
74936;BME280;63501;55.570;37.488;2022-12-07T11:19:27;99954.44;;;1.46;40.68
74936;BME280;63501;55.570;37.488;2022-12-07T11:22:33;99957.97;;;1.38;38.99
74936;BME280;63501;55.570;37.488;2022-12-07T11:25:03;99955.72;;;1.31;40.35
74936;BME280;63501;55.570;37.488;2022-12-07T11:27:47;99951.06;;;1.40;39.56
74936;BME280;63501;55.570;37.488;2022-12-07T11:30:19;99942.88;;;1.31;39.68
74936;BME280;63501;55.570;37.488;2022-12-07T11:33:19;99944.81;;;1.31;39.71
74936;BME280;63501;55.570;37.488;2022-12-07T11:36:04;99930.31;;;1.04;39.63
74936;BME280;63501;55.570;37.488;2022-12-07T11:38:50;99932.69;;;0.97;40.19
74936;BME280;63501;55.570;37.488;2022-12-07T11:41:23;99944.13;;;0.68;40.38
74936;BME280;63501;55.570;37.488;2022-12-07T11:47:10;99949.97;;;0.53;40.36
74936;BME280;63501;55.570;37.488;2022-12-07T11:49:51;99948.19;;;0.26;40.42
74936;BME280;63501;55.570;37.488;2022-12-07T11:52:30;99940.13;;;0.12;40.59
74936;BME280;63501;55.570;37.488;2022-12-07T11:54:59;99937.28;;;-0.28;40.70
74936;BME280;63501;55.570;37.488;2022-12-07T11:57:42;99945.13;;;-0.76;41.54
74936;BME280;63501;55.570;37.488;2022-12-07T12:00:13;99947.97;;;-0.95;42.11
74936;BME280;63501;55.570;37.488;2022-12-07T12:03:09;99939.81;;;-1.22;42.64
74936;BME280;63501;55.570;37.488;2022-12-07T12:05:39;99938.28;;;-1.42;42.48
74936;BME280;63501;55.570;37.488;2022-12-07T12:08:15;99947.75;;;-1.72;42.77
74936;BME280;63501;55.570;37.488;2022-12-07T12:16:51;99948.69;;;-1.96;44.46
74936;BME280;63501;55.570;37.488;2022-12-07T12:22:15;99946.66;;;-2.60;44.35
74936;BME280;63501;55.570;37.488;2022-12-07T12:24:43;99942.00;;;-2.98;44.37
74936;BME280;63501;55.570;37.488;2022-12-07T12:27:20;99958.75;;;-3.43;45.73
74936;BME280;63501;55.570;37.488;2022-12-07T12:29:53;99948.53;;;-3.76;46.02
74936;BME280;63501;55.570;37.488;2022-12-07T12:32:33;99963.91;;;-4.49;46.88
74936;BME280;63501;55.570;37.488;2022-12-07T12:35:28;99968.06;;;-5.37;48.02
74936;BME280;63501;55.570;37.488;2022-12-07T12:37:54;99970.84;;;-6.03;49.01
74936;BME280;63501;55.570;37.488;2022-12-07T12:42:51;99985.66;;;-7.04;50.17
74936;BME280;63501;55.570;37.488;2022-12-07T12:45:26;99982.78;;;-7.45;52.68
74936;BME280;63501;55.570;37.488;2022-12-07T12:48:03;100002.00;;;-7.95;53.57
74936;BME280;63501;55.570;37.488;2022-12-07T12:58:36;100005.50;;;-8.98;57.26
74936;BME280;63501;55.570;37.488;2022-12-07T13:03:56;100002.38;;;-9.34;58.47
74936;BME280;63501;55.570;37.488;2022-12-07T13:08:51;99995.28;;;-9.62;60.06
74936;BME280;63501;55.570;37.488;2022-12-07T13:11:26;99996.19;;;-9.73;59.65
74936;BME280;63501;55.570;37.488;2022-12-07T13:16:58;99994.50;;;-9.96;60.54
74936;BME280;63501;55.570;37.488;2022-12-07T13:19:53;99981.28;;;-10.02;61.50
74936;BME280;63501;55.570;37.488;2022-12-07T13:22:49;99992.38;;;-10.10;62.00
74936;BME280;63501;55.570;37.488;2022-12-07T13:27:48;99994.91;;;-10.21;63.83
74936;BME280;63501;55.570;37.488;2022-12-07T13:30:19;99993.44;;;-10.28;64.49
74936;BME280;63501;55.570;37.488;2022-12-07T13:32:57;99997.91;;;-10.34;63.52
74936;BME280;63501;55.570;37.488;2022-12-07T13:35:30;100006.63;;;-10.38;63.99
74936;BME280;63501;55.570;37.488;2022-12-07T13:37:57;99990.84;;;-10.40;64.46
74936;BME280;63501;55.570;37.488;2022-12-07T13:40:23;99986.47;;;-10.46;63.69
74936;BME280;63501;55.570;37.488;2022-12-07T13:43:04;99978.78;;;-10.43;65.19
74936;BME280;63501;55.570;37.488;2022-12-07T13:45:32;99984.03;;;-10.48;65.55
74936;BME280;63501;55.570;37.488;2022-12-07T13:48:35;99980.72;;;-10.55;64.92
74936;BME280;63501;55.570;37.488;2022-12-07T13:51:03;99985.16;;;-10.60;64.58
74936;BME280;63501;55.570;37.488;2022-12-07T13:53:30;99984.31;;;-10.61;66.00
74936;BME280;63501;55.570;37.488;2022-12-07T13:55:57;99982.94;;;-10.63;64.84
74936;BME280;63501;55.570;37.488;2022-12-07T13:58:25;99975.97;;;-10.64;65.30
74936;BME280;63501;55.570;37.488;2022-12-07T14:00:51;99974.94;;;-10.63;65.47
74936;BME280;63501;55.570;37.488;2022-12-07T14:05:44;99963.59;;;-10.71;66.08
74936;BME280;63501;55.570;37.488;2022-12-07T14:10:55;99973.13;;;-10.75;67.66
74936;BME280;63501;55.570;37.488;2022-12-07T14:16:23;99971.31;;;-10.86;67.01
74936;BME280;63501;55.570;37.488;2022-12-07T14:18:50;99982.22;;;-10.87;66.87
74936;BME280;63501;55.570;37.488;2022-12-07T14:21:21;99970.75;;;-10.88;67.30
74936;BME280;63501;55.570;37.488;2022-12-07T14:26:34;99968.78;;;-10.93;66.79
74936;BME280;63501;55.570;37.488;2022-12-07T14:31:50;99969.03;;;-10.94;68.51
74936;BME280;63501;55.570;37.488;2022-12-07T14:34:16;99968.44;;;-10.96;68.12
74936;BME280;63501;55.570;37.488;2022-12-07T14:36:42;99968.44;;;-10.96;68.56
74936;BME280;63501;55.570;37.488;2022-12-07T14:39:07;99979.81;;;-11.01;69.31